Time;durP1;ratioP1;P1;durP2;ratioP2;P2;SDS_P1;SDS_P2;PMS_P1;PMS_P2;Temp;Humidity;BMP_temperature;BMP_pressure;BME280_temperature;BME280_humidity;BME280_pressure;Samples;Min_cycle;Max_cycle;Signal;HPM_P1;HPM_P2
2024/03/08 00:01:23;;;;;;;18.23;3.00;;;;;;;28.46;25.15;99820.97;7387579;19;20022;-81
2024/03/08 00:03:49;;;;;;;5.00;3.22;;;;;;;28.59;24.79;99819.06;7386852;19;20500;-80
2024/03/08 00:06:15;;;;;;;4.07;2.40;;;;;;;28.40;25.20;99814.78;7386216;19;20037;-81
2024/03/08 00:08:41;;;;;;;7.82;4.03;;;;;;;28.45;25.06;99810.88;7389528;19;20037;-80
2024/03/08 00:11:08;;;;;;;8.88;1.85;;;;;;;28.29;25.08;99806.75;7388659;19;20018;-80
2024/03/08 00:13:34;;;;;;;6.55;4.28;;;;;;;27.52;25.51;99805.00;7389677;19;20010;-81
2024/03/08 00:16:00;;;;;;;7.22;3.05;;;;;;;28.51;25.23;99805.59;7384655;19;20338;-81
2024/03/08 00:18:26;;;;;;;4.18;3.78;;;;;;;28.54;25.06;99798.63;7388695;19;21595;-81
2024/03/08 00:20:52;;;;;;;2.30;2.10;;;;;;;27.81;25.53;99794.41;7387179;19;20449;-81
2024/03/08 00:23:18;;;;;;;9.80;2.63;;;;;;;26.97;26.13;99800.59;7385404;19;20015;-81
2024/03/08 00:25:44;;;;;;;3.92;2.45;;;;;;;27.73;25.50;99790.91;7384992;19;20026;-81
2024/03/08 00:28:14;;;;;;;8.10;2.47;;;;;;;28.24;25.14;99784.16;7391374;19;20109;-81
2024/03/08 00:30:40;;;;;;;8.00;3.42;;;;;;;28.08;25.37;99786.53;7386573;19;20038;-81
2024/03/08 00:33:06;;;;;;;6.00;4.00;;;;;;;28.07;25.43;99787.88;7387959;19;20022;-81
2024/03/08 00:35:32;;;;;;;4.32;2.20;;;;;;;29.33;24.67;99784.41;7385967;19;20006;-81
2024/03/08 00:37:59;;;;;;;9.50;2.50;;;;;;;29.46;24.49;99778.16;7388470;19;20015;-80
2024/03/08 00:40:25;;;;;;;7.32;2.08;;;;;;;29.54;24.62;99760.78;7388617;19;20014;-80
2024/03/08 00:42:53;;;;;;;5.15;2.50;;;;;;;29.15;24.36;99765.88;7385426;19;20022;-80
2024/03/08 00:45:19;;;;;;;7.57;2.47;;;;;;;29.11;24.75;99762.69;7388697;19;20022;-81
2024/03/08 00:47:45;;;;;;;3.95;1.55;;;;;;;28.69;24.96;99753.88;7394920;19;20059;-81
2024/03/08 00:50:12;;;;;;;2.53;2.25;;;;;;;27.36;25.83;99760.81;7396007;19;20491;-81
2024/03/08 00:52:38;;;;;;;9.73;1.75;;;;;;;27.24;26.37;99760.59;7393315;19;20409;-81
2024/03/08 00:55:05;;;;;;;3.45;2.22;;;;;;;28.23;25.61;99760.47;7392672;19;20007;-81
2024/03/08 00:57:31;;;;;;;3.88;2.03;;;;;;;28.85;24.88;99747.19;7396402;19;20022;-81
2024/03/08 00:59:57;;;;;;;4.70;2.75;;;;;;;29.11;24.55;99742.59;7393398;19;20018;-81
2024/03/08 01:02:23;;;;;;;13.73;2.80;;;;;;;29.16;24.62;99739.47;7393952;19;20455;-81
2024/03/08 01:04:50;;;;;;;2.55;1.70;;;;;;;29.37;24.45;99741.63;7393956;19;20351;-81
2024/03/08 01:07:16;;;;;;;5.07;3.05;;;;;;;29.62;24.34;99739.13;7393226;19;20014;-81
2024/03/08 01:09:42;;;;;;;42.00;3.42;;;;;;;29.86;24.12;99731.47;7393899;19;20019;-81
2024/03/08 01:12:10;;;;;;;10.35;2.13;;;;;;;30.03;24.13;99730.44;7397089;19;20078;-81
2024/03/08 01:14:36;;;;;;;28.77;3.47;;;;;;;30.16;24.00;99729.88;7392435;19;20026;-81
2024/03/08 01:17:02;;;;;;;7.05;3.22;;;;;;;30.20;24.06;99733.78;7392553;19;20022;-81
2024/03/08 01:19:28;;;;;;;17.95;4.18;;;;;;;30.06;24.19;99723.47;7392938;19;20021;-80
2024/03/08 01:21:56;;;;;;;9.95;3.08;;;;;;;30.15;24.35;99714.03;7391860;19;20025;-81
2024/03/08 01:24:23;;;;;;;5.05;3.20;;;;;;;29.88;24.71;99708.63;7392556;19;20380;-81
2024/03/08 01:26:49;;;;;;;12.80;4.85;;;;;;;29.90;24.53;99709.53;7394314;19;20022;-81
2024/03/08 01:29:15;;;;;;;2.95;2.08;;;;;;;30.35;24.18;99715.38;7391722;19;20019;-80
2024/03/08 01:31:41;;;;;;;4.32;2.08;;;;;;;30.41;24.32;99710.78;7394247;19;20025;-81
2024/03/08 01:34:07;;;;;;;2.75;2.17;;;;;;;30.33;24.17;99706.63;7393862;19;20014;-80
2024/03/08 01:36:33;;;;;;;8.75;3.70;;;;;;;30.24;24.49;99704.56;7391074;19;20050;-81
2024/03/08 01:38:59;;;;;;;8.43;3.05;;;;;;;29.97;24.72;99699.91;7392065;19;20019;-81
2024/03/08 01:41:29;;;;;;;9.90;4.65;;;;;;;30.34;24.19;99699.53;7392289;19;20039;-81
2024/03/08 01:43:55;;;;;;;5.07;1.65;;;;;;;30.24;24.67;99698.81;7393289;19;20089;-81
2024/03/08 01:46:22;;;;;;;18.15;4.38;;;;;;;30.47;24.65;99704.72;7392918;19;20015;-80
2024/03/08 01:48:48;;;;;;;7.63;3.33;;;;;;;30.36;24.86;99702.53;7393212;19;20014;-81
2024/03/08 01:51:15;;;;;;;6.07;3.47;;;;;;;30.21;24.68;99694.31;7393629;19;20014;-81
2024/03/08 01:53:45;;;;;;;5.55;2.33;;;;;;;30.29;24.58;99694.84;7391750;19;20026;-80
2024/03/08 01:56:13;;;;;;;1.98;1.88;;;;;;;30.55;24.93;99690.84;7390769;19;20010;-80
2024/03/08 01:58:44;;;;;;;9.45;2.92;;;;;;;30.39;24.94;99681.16;7391763;19;20018;-80
2024/03/08 02:01:15;;;;;;;4.85;2.53;;;;;;;30.27;24.78;99681.09;7391729;19;20030;-80
2024/03/08 02:03:43;;;;;;;;;;;;;;;30.24;25.07;99664.34;7392015;19;20033;-81
2024/03/08 02:06:13;;;;;;;17.77;3.10;;;;;;;30.09;25.05;99659.03;7388249;19;19919;-81
2024/03/08 02:08:41;;;;;;;6.78;2.90;;;;;;;29.97;25.01;99653.97;7395206;19;20007;-81
2024/03/08 02:11:07;;;;;;;2.95;1.83;;;;;;;29.61;25.28;99654.34;7392338;19;20022;-80
2024/03/08 02:13:34;;;;;;;9.02;3.38;;;;;;;29.03;25.81;99642.41;7392527;19;20018;-80
2024/03/08 02:16:00;;;;;;;8.93;3.58;;;;;;;28.84;25.66;99651.09;7391686;19;20014;-81
2024/03/08 02:18:30;;;;;;;8.48;2.55;;;;;;;28.72;26.04;99644.47;7391837;19;20106;-81
2024/03/08 02:20:57;;;;;;;4.28;3.40;;;;;;;28.80;25.97;99644.31;7393544;19;20015;-81
2024/03/08 02:23:27;;;;;;;8.38;3.85;;;;;;;28.85;26.11;99640.34;7389871;19;20023;-81
2024/03/08 02:25:56;;;;;;;10.02;1.88;;;;;;;28.94;26.38;99640.34;7390148;19;20010;-80
2024/03/08 02:28:25;;;;;;;20.23;2.70;;;;;;;28.97;26.33;99632.63;7394817;19;20406;-80
2024/03/08 02:30:51;;;;;;;10.20;2.72;;;;;;;29.09;25.67;99630.59;7394830;19;20018;-81
2024/03/08 02:33:18;;;;;;;11.27;4.10;;;;;;;28.88;26.20;99619.84;7390623;19;20480;-80
2024/03/08 02:35:48;;;;;;;11.68;3.50;;;;;;;28.99;25.81;99619.19;7389059;19;20023;-80
2024/03/08 02:38:19;;;;;;;7.18;2.97;;;;;;;28.84;25.96;99621.66;7390267;19;20029;-80
2024/03/08 02:40:47;;;;;;;7.57;3.22;;;;;;;29.15;25.81;99610.97;7392405;19;20022;-80
2024/03/08 02:43:14;;;;;;;12.80;3.17;;;;;;;29.36;25.91;99613.91;7388805;19;20023;-80
2024/03/08 02:45:45;;;;;;;11.07;3.25;;;;;;;30.02;25.59;99608.31;7388634;19;20488;-80
2024/03/08 02:48:12;;;;;;;4.33;2.80;;;;;;;30.07;25.04;99604.31;7390970;19;20026;-80
2024/03/08 02:50:47;;;;;;;8.88;2.45;;;;;;;30.13;25.10;99601.84;7392753;19;20028;-80
2024/03/08 02:53:14;;;;;;;12.38;4.35;;;;;;;30.11;25.45;99595.94;7391731;19;20018;-80
2024/03/08 02:55:41;;;;;;;8.02;3.10;;;;;;;30.26;25.47;99599.13;7388702;19;20010;-80
2024/03/08 02:58:10;;;;;;;7.22;4.82;;;;;;;30.32;25.43;99590.19;7393468;19;20470;-80
2024/03/08 03:00:38;;;;;;;9.15;4.22;;;;;;;30.47;25.47;99581.84;7390255;19;20441;-80
2024/03/08 03:03:06;;;;;;;7.57;3.63;;;;;;;30.51;25.47;99584.25;7392807;19;20561;-80
2024/03/08 03:05:33;;;;;;;15.07;3.28;;;;;;;30.47;25.55;99584.00;7387638;19;20022;-80
2024/03/08 03:07:59;;;;;;;7.00;3.25;;;;;;;30.45;25.01;99578.13;7387905;19;20014;-80
2024/03/08 03:10:26;;;;;;;16.88;3.90;;;;;;;30.34;25.12;99564.47;7391686;19;20014;-80
2024/03/08 03:12:52;;;;;;;18.05;3.42;;;;;;;30.68;25.38;99567.41;7389158;19;20015;-81
2024/03/08 03:15:18;;;;;;;7.07;3.17;;;;;;;30.58;25.44;99563.88;7392078;19;20022;-80
2024/03/08 03:17:50;;;;;;;8.63;3.03;;;;;;;30.70;25.40;99552.38;7390875;19;20097;-80
2024/03/08 03:20:25;;;;;;;5.93;2.15;;;;;;;31.02;24.82;99557.28;7390073;19;20551;-80
2024/03/08 03:22:52;;;;;;;8.00;3.60;;;;;;;31.14;24.91;99552.28;7386715;19;20022;-80
2024/03/08 03:25:25;;;;;;;9.68;4.47;;;;;;;30.46;25.50;99554.50;7388991;19;20070;-80
2024/03/08 03:27:57;;;;;;;8.45;4.10;;;;;;;30.42;25.08;99554.22;7394556;19;20018;-80
2024/03/08 03:30:26;;;;;;;10.52;4.00;;;;;;;30.38;25.16;99553.22;7388607;19;20018;-80
2024/03/08 03:32:54;;;;;;;12.25;3.90;;;;;;;30.39;25.07;99548.97;7390120;19;20394;-81
2024/03/08 03:35:21;;;;;;;18.65;3.60;;;;;;;30.34;25.33;99541.47;7386705;19;20019;-80
2024/03/08 03:40:39;;;;;;;14.90;4.70;;;;;;;30.44;25.10;99530.59;7389063;19;20092;-80
2024/03/08 03:43:06;;;;;;;8.82;4.15;;;;;;;30.56;25.29;99534.22;7387008;19;20018;-81
2024/03/08 03:45:36;;;;;;;12.48;4.97;;;;;;;30.48;25.21;99528.00;7387653;19;20489;-80
2024/03/08 03:48:03;;;;;;;9.57;3.65;;;;;;;30.63;25.18;99533.25;7389351;19;20030;-80
2024/03/08 03:50:30;;;;;;;2.08;1.58;;;;;;;30.60;25.03;99528.75;7395462;19;20062;-80
2024/03/08 03:52:56;;;;;;;10.45;2.88;;;;;;;30.39;25.21;99528.84;7389544;19;20014;-80
2024/03/08 03:55:22;;;;;;;5.68;3.90;;;;;;;30.31;25.32;99528.34;7388140;19;20025;-80
2024/03/08 03:57:49;;;;;;;8.75;3.50;;;;;;;30.86;25.16;99521.78;7389308;19;20015;-80
2024/03/08 04:00:15;;;;;;;10.18;2.53;;;;;;;30.95;24.70;99523.75;7385627;19;20082;-80
2024/03/08 04:02:42;;;;;;;13.00;3.15;;;;;;;31.14;24.92;99517.75;7386003;19;20018;-80
2024/03/08 04:05:09;;;;;;;14.43;3.38;;;;;;;31.00;24.78;99508.25;7386741;19;20011;-80
2024/03/08 04:07:36;;;;;;;7.72;3.03;;;;;;;30.73;24.97;99498.63;7386925;19;20021;-80
2024/03/08 04:10:02;;;;;;;8.98;3.38;;;;;;;30.60;25.26;99500.00;7389452;19;20026;-80
2024/03/08 04:12:29;;;;;;;7.93;2.90;;;;;;;30.58;25.27;99488.38;7392377;19;20026;-80
2024/03/08 04:14:55;;;;;;;7.95;3.65;;;;;;;30.73;25.09;99494.38;7387902;19;20014;-81
2024/03/08 04:17:23;;;;;;;23.30;6.97;;;;;;;30.78;24.93;99492.50;7386095;19;20019;-80
2024/03/08 04:19:50;;;;;;;31.17;5.22;;;;;;;30.64;24.73;99486.63;7387039;19;20511;-81
2024/03/08 04:22:17;;;;;;;9.02;2.60;;;;;;;30.55;24.90;99481.00;7393970;19;20041;-80
2024/03/08 04:24:46;;;;;;;7.28;2.63;;;;;;;30.68;24.99;99483.25;7395992;19;20089;-80
2024/03/08 04:27:14;;;;;;;4.15;2.72;;;;;;;31.13;24.55;99475.97;7398570;19;20110;-81
2024/03/08 04:29:41;;;;;;;14.20;3.95;;;;;;;31.28;24.61;99480.41;7394386;19;20019;-80
2024/03/08 04:32:08;;;;;;;8.93;2.50;;;;;;;30.98;24.56;99473.63;7393524;19;20038;-80
2024/03/08 04:34:35;;;;;;;10.27;3.30;;;;;;;31.01;24.78;99480.25;7394633;19;20301;-80
2024/03/08 04:37:02;;;;;;;17.50;5.00;;;;;;;31.04;24.63;99473.97;7396432;19;20017;-80
2024/03/08 04:39:28;;;;;;;9.45;5.05;;;;;;;31.16;24.72;99471.84;7395584;19;20014;-80
2024/03/08 04:41:59;;;;;;;9.93;4.45;;;;;;;31.17;24.38;99476.19;7394428;19;20531;-80
2024/03/08 04:44:25;;;;;;;6.90;4.47;;;;;;;31.45;24.36;99471.38;7394694;19;20019;-80
2024/03/08 04:46:51;;;;;;;8.93;2.60;;;;;;;31.03;24.51;99460.97;7395321;19;20029;-81
2024/03/08 04:49:18;;;;;;;9.00;4.75;;;;;;;31.17;24.46;99464.69;7394232;19;20014;-81
2024/03/08 04:51:44;;;;;;;9.05;3.38;;;;;;;31.01;24.72;99463.75;7396221;19;20018;-80
2024/03/08 04:54:11;;;;;;;23.75;5.72;;;;;;;31.04;24.48;99459.59;7394261;19;20102;-81
2024/03/08 04:56:37;;;;;;;7.97;3.33;;;;;;;31.01;24.58;99460.88;7395689;19;20019;-80
2024/03/08 04:59:03;;;;;;;5.78;2.58;;;;;;;31.00;24.62;99459.34;7394934;19;20022;-81
2024/03/08 05:01:29;;;;;;;9.80;3.63;;;;;;;31.00;24.57;99465.09;7393571;19;20021;-80
2024/03/08 05:03:55;;;;;;;6.30;2.97;;;;;;;30.95;24.47;99454.00;7393718;19;20014;-80
2024/03/08 05:06:23;;;;;;;30.95;5.30;;;;;;;31.47;24.25;99450.59;7392704;19;20321;-81
2024/03/08 05:08:49;;;;;;;14.55;4.13;;;;;;;30.82;24.42;99455.34;7394569;19;20035;-80
2024/03/08 05:11:15;;;;;;;7.93;1.98;;;;;;;30.83;24.79;99453.22;7395335;19;20099;-81
2024/03/08 05:13:41;;;;;;;5.53;3.45;;;;;;;30.81;24.77;99450.97;7395441;19;20018;-81
2024/03/08 05:16:07;;;;;;;7.95;2.28;;;;;;;31.21;24.28;99444.78;7391032;19;20019;-80
2024/03/08 05:18:35;;;;;;;5.53;3.13;;;;;;;31.24;24.32;99442.78;7395431;19;20019;-80
2024/03/08 05:21:03;;;;;;;12.55;4.00;;;;;;;31.05;24.68;99445.97;7391775;19;20018;-81
2024/03/08 05:23:30;;;;;;;9.45;4.20;;;;;;;31.00;24.08;99444.97;7391990;19;20030;-80
2024/03/08 05:25:57;;;;;;;16.80;3.70;;;;;;;30.93;24.70;99440.22;7390979;19;20023;-80
2024/03/08 05:28:23;;;;;;;13.38;2.30;;;;;;;31.08;24.62;99433.94;7395251;19;20014;-80
2024/03/08 05:30:50;;;;;;;10.50;4.72;;;;;;;31.07;24.36;99438.22;7395021;19;20010;-80
2024/03/08 05:33:16;;;;;;;16.92;3.65;;;;;;;31.31;24.11;99433.88;7394149;19;20014;-80
2024/03/08 05:35:42;;;;;;;16.48;3.95;;;;;;;31.26;24.16;99426.38;7389532;19;20015;-80
2024/03/08 05:38:08;;;;;;;12.13;4.57;;;;;;;31.16;24.23;99428.69;7391627;19;20019;-80
2024/03/08 05:40:34;;;;;;;18.27;4.78;;;;;;;31.09;24.40;99438.31;7394164;19;20491;-81
2024/03/08 05:43:01;;;;;;;8.27;3.90;;;;;;;31.32;24.55;99420.97;7392258;19;20039;-80
2024/03/08 05:45:27;;;;;;;15.57;5.07;;;;;;;31.21;24.20;99418.88;7389336;19;20018;-80
2024/03/08 05:47:53;;;;;;;8.55;3.22;;;;;;;31.65;23.87;99420.72;7392067;19;20011;-80
2024/03/08 05:50:20;;;;;;;15.10;4.60;;;;;;;32.33;23.33;99417.28;7391905;19;20017;-80
2024/03/08 05:52:47;;;;;;;10.73;3.72;;;;;;;32.14;23.68;99409.75;7395128;19;20018;-80
2024/03/08 05:55:14;;;;;;;23.55;4.25;;;;;;;32.06;23.50;99417.97;7390833;19;20014;-80
2024/03/08 05:57:43;;;;;;;6.70;2.58;;;;;;;31.93;23.83;99410.00;7392929;19;20018;-80
2024/03/08 06:00:15;;;;;;;15.13;4.13;;;;;;;31.84;23.78;99408.81;7389931;19;20018;-80
2024/03/08 06:02:42;;;;;;;14.68;3.38;;;;;;;31.66;23.69;99407.06;7391205;19;20018;-81
2024/03/08 06:05:10;;;;;;;9.88;3.58;;;;;;;31.98;23.69;99403.13;7389597;19;20006;-81
2024/03/08 06:07:42;;;;;;;5.82;4.05;;;;;;;32.25;23.46;99399.56;7391244;19;20014;-81
2024/03/08 06:10:13;;;;;;;14.82;4.13;;;;;;;32.25;23.57;99405.31;7391563;19;20074;-81
2024/03/08 06:12:41;;;;;;;26.08;5.53;;;;;;;32.27;23.30;99391.00;7394109;19;20015;-81
2024/03/08 06:15:09;;;;;;;16.38;3.35;;;;;;;32.29;23.26;99394.75;7392827;19;20036;-81
2024/03/08 06:17:36;;;;;;;4.03;2.65;;;;;;;32.34;23.01;99389.91;7392240;19;20086;-81
2024/03/08 06:20:04;;;;;;;2.75;2.17;;;;;;;32.33;23.20;99385.56;7391756;19;20014;-80
2024/03/08 06:22:30;;;;;;;9.15;2.80;;;;;;;32.28;23.22;99387.47;7388166;19;20350;-81
2024/03/08 06:24:56;;;;;;;10.18;3.25;;;;;;;32.21;23.21;99382.00;7388438;19;20349;-81
2024/03/08 06:27:22;;;;;;;8.13;2.60;;;;;;;32.28;23.23;99381.72;7392502;19;20341;-80
2024/03/08 06:29:49;;;;;;;18.23;4.55;;;;;;;32.49;23.29;99375.66;7391114;19;20064;-80
2024/03/08 06:32:18;;;;;;;9.50;4.38;;;;;;;31.65;23.69;99368.13;7390858;19;20480;-80
2024/03/08 06:34:44;;;;;;;20.08;4.03;;;;;;;31.79;23.77;99380.44;7389767;19;20368;-81
2024/03/08 06:37:11;;;;;;;5.35;3.45;;;;;;;32.24;23.35;99375.75;7390175;19;20018;-81
2024/03/08 06:39:37;;;;;;;16.33;3.38;;;;;;;32.31;23.24;99363.16;7391004;19;20034;-81
2024/03/08 06:42:04;;;;;;;21.77;3.78;;;;;;;32.42;23.09;99365.16;7390494;19;20042;-81
2024/03/08 06:44:31;;;;;;;6.72;2.10;;;;;;;32.12;23.06;99357.78;7388295;19;20022;-81
2024/03/08 06:46:58;;;;;;;6.05;4.25;;;;;;;31.87;23.47;99357.84;7388375;19;20033;-81
2024/03/08 06:49:26;;;;;;;13.50;5.90;;;;;;;32.37;23.11;99359.81;7391074;19;20376;-80
2024/03/08 06:51:53;;;;;;;12.18;3.95;;;;;;;32.39;22.88;99352.03;7391382;19;20356;-80
2024/03/08 06:54:19;;;;;;;9.07;4.65;;;;;;;32.29;23.16;99351.50;7390999;19;20014;-81
2024/03/08 06:56:45;;;;;;;27.77;4.78;;;;;;;31.66;23.44;99340.84;7391994;19;20438;-81
2024/03/08 06:59:11;;;;;;;9.05;2.97;;;;;;;31.27;23.79;99347.28;7388857;19;20022;-81
2024/03/08 07:01:38;;;;;;;7.82;3.17;;;;;;;31.23;23.54;99340.56;7388062;19;20030;-81
2024/03/08 07:04:05;;;;;;;11.88;3.03;;;;;;;31.09;24.19;99342.63;7390674;19;20022;-81
2024/03/08 07:06:33;;;;;;;11.13;4.13;;;;;;;31.33;23.64;99347.66;7390364;19;20349;-81
2024/03/08 07:08:59;;;;;;;6.82;3.92;;;;;;;32.05;22.96;99353.09;7388961;19;20024;-81
2024/03/08 07:11:25;;;;;;;11.13;3.35;;;;;;;32.23;23.37;99345.41;7393873;19;20018;-81
2024/03/08 07:13:52;;;;;;;8.02;3.80;;;;;;;32.05;23.01;99348.06;7388667;19;20368;-82
2024/03/08 07:16:18;;;;;;;27.70;4.97;;;;;;;32.10;23.15;99338.25;7388655;19;20348;-82
2024/03/08 07:18:44;;;;;;;34.35;4.20;;;;;;;32.13;23.26;99330.47;7389602;19;20041;-81
2024/03/08 07:21:10;;;;;;;10.50;3.97;;;;;;;32.25;22.90;99342.63;7392745;19;20014;-81
2024/03/08 07:26:21;;;;;;;14.70;3.92;;;;;;;32.39;23.02;99328.22;7389644;19;20025;-82
2024/03/08 07:28:47;;;;;;;17.33;3.38;;;;;;;32.57;22.87;99344.34;7390326;19;20468;-81
2024/03/08 07:33:53;;;;;;;21.35;5.25;;;;;;;32.56;22.89;99330.56;7390594;19;20018;-81
2024/03/08 07:36:19;;;;;;;11.73;5.22;;;;;;;32.67;23.18;99323.94;7387357;19;20029;-81
2024/03/08 07:38:46;;;;;;;8.77;3.97;;;;;;;32.75;22.86;99330.84;7388539;19;20021;-81
2024/03/08 07:41:13;;;;;;;8.68;3.75;;;;;;;32.72;23.07;99326.41;7387513;19;20019;-81
2024/03/08 07:43:39;;;;;;;16.27;4.97;;;;;;;32.70;23.21;99332.03;7386507;19;20427;-81
2024/03/08 07:46:05;;;;;;;14.32;6.07;;;;;;;32.59;23.02;99327.16;7386928;19;20025;-81
2024/03/08 07:48:31;;;;;;;14.20;7.03;;;;;;;32.73;23.21;99327.88;7388544;19;20022;-81
2024/03/08 07:50:57;;;;;;;7.80;3.92;;;;;;;32.73;22.94;99327.88;7387709;19;20102;-82
2024/03/08 07:53:26;;;;;;;11.00;4.93;;;;;;;32.52;23.14;99322.47;7386663;19;20010;-81
2024/03/08 07:55:52;;;;;;;10.05;4.25;;;;;;;32.14;23.44;99331.94;7392872;19;20017;-81
2024/03/08 07:58:19;;;;;;;17.48;4.00;;;;;;;32.13;23.41;99321.81;7400114;19;20036;-81
2024/03/08 08:00:45;;;;;;;13.80;4.30;;;;;;;32.29;23.59;99325.56;7394311;19;20018;-82
2024/03/08 08:03:12;;;;;;;6.57;3.58;;;;;;;32.41;23.42;99317.53;7394670;19;20032;-82
2024/03/08 08:05:38;;;;;;;12.45;3.88;;;;;;;32.35;23.49;99311.47;7392604;19;20048;-81
2024/03/08 08:08:07;;;;;;;21.15;6.10;;;;;;;32.31;23.44;99311.25;7400519;19;20027;-82
2024/03/08 08:10:33;;;;;;;10.95;2.72;;;;;;;32.20;23.19;99308.47;7394838;19;20022;-82
2024/03/08 08:12:59;;;;;;;6.20;2.92;;;;;;;32.22;23.40;99303.56;7394305;19;20014;-81
2024/03/08 08:15:25;;;;;;;19.80;4.18;;;;;;;32.26;23.65;99309.56;7393875;19;20015;-82
2024/03/08 08:17:51;;;;;;;9.50;3.97;;;;;;;32.15;23.63;99311.16;7396663;19;20491;-82
2024/03/08 08:20:18;;;;;;;9.77;3.75;;;;;;;32.25;23.29;99316.69;7400656;19;20018;-82
2024/03/08 08:22:44;;;;;;;12.18;3.85;;;;;;;32.31;23.25;99310.50;7395534;19;20033;-82
2024/03/08 08:25:13;;;;;;;18.52;6.25;;;;;;;32.45;23.37;99308.34;7394647;19;20579;-82
2024/03/08 08:27:39;;;;;;;12.85;5.15;;;;;;;32.51;23.23;99303.66;7398167;19;20022;-82
2024/03/08 08:30:08;;;;;;;10.57;4.03;;;;;;;32.61;22.85;99301.31;7397791;19;20019;-82
2024/03/08 08:32:36;;;;;;;8.07;3.00;;;;;;;32.74;22.94;99306.31;7395543;19;20029;-82
2024/03/08 08:35:04;;;;;;;12.05;2.67;;;;;;;32.58;23.04;99302.59;7393467;19;20018;-82
2024/03/08 08:37:31;;;;;;;15.18;4.18;;;;;;;32.00;23.78;99296.63;7393009;19;20019;-81
2024/03/08 08:39:57;;;;;;;16.58;3.72;;;;;;;32.30;23.37;99304.00;7394393;19;20483;-82
2024/03/08 08:42:24;;;;;;;11.60;3.40;;;;;;;32.76;22.55;99291.97;7391624;19;20109;-81
2024/03/08 08:44:52;;;;;;;11.38;4.10;;;;;;;32.97;22.85;99298.75;7393436;19;20038;-82
2024/03/08 08:47:18;;;;;;;21.98;4.15;;;;;;;32.85;22.71;99293.84;7394129;19;20062;-81
2024/03/08 08:49:46;;;;;;;23.00;6.05;;;;;;;32.99;22.83;99278.63;7393528;19;20074;-82
2024/03/08 08:52:12;;;;;;;21.80;4.68;;;;;;;33.06;22.53;99272.56;7393700;19;20038;-88
2024/03/08 08:54:39;;;;;;;11.98;5.22;;;;;;;33.10;22.43;99277.75;7393111;19;20034;-79
2024/03/08 08:57:07;;;;;;;7.68;4.05;;;;;;;33.04;22.42;99283.25;7395960;19;20029;-81
2024/03/08 08:59:39;;;;;;;6.53;4.25;;;;;;;32.90;22.60;99278.25;7392769;19;20388;-82
2024/03/08 09:02:06;;;;;;;14.32;4.75;;;;;;;32.84;22.64;99269.28;7393460;19;20029;-82
2024/03/08 09:04:32;;;;;;;16.77;4.63;;;;;;;32.72;22.53;99267.97;7392552;19;20353;-82
2024/03/08 09:06:58;;;;;;;22.45;4.30;;;;;;;32.70;22.79;99259.94;7391537;19;20018;-82
2024/03/08 09:09:25;;;;;;;6.15;2.78;;;;;;;32.89;22.36;99265.22;7392083;19;20429;-82
2024/03/08 09:11:52;;;;;;;5.28;2.53;;;;;;;33.15;22.61;99268.66;7395861;19;20011;-81
2024/03/08 09:14:20;;;;;;;18.25;5.38;;;;;;;33.15;22.08;99265.03;7395637;19;20038;-81
2024/03/08 09:16:47;;;;;;;10.75;4.43;;;;;;;33.26;22.15;99256.22;7392519;19;20073;-82
2024/03/08 09:19:13;;;;;;;4.72;3.25;;;;;;;33.67;22.07;99247.31;7393618;19;20015;-81
2024/03/08 09:21:40;;;;;;;9.50;3.92;;;;;;;33.97;21.77;99242.88;7392164;19;20015;-81
2024/03/08 09:24:09;;;;;;;12.20;2.92;;;;;;;34.22;21.60;99251.25;7392572;19;20037;-81
2024/03/08 09:26:37;;;;;;;16.10;4.57;;;;;;;34.53;21.73;99241.00;7398363;19;20023;-81
2024/03/08 09:29:03;;;;;;;4.68;3.85;;;;;;;34.81;21.31;99242.91;7392926;19;20073;-82
2024/03/08 09:31:30;;;;;;;7.95;2.97;;;;;;;34.87;21.11;99233.75;7392711;19;20019;-81
2024/03/08 09:33:56;;;;;;;16.95;4.88;;;;;;;35.03;20.92;99240.22;7392780;19;20414;-81
2024/03/08 09:36:22;;;;;;;7.45;2.67;;;;;;;36.80;20.01;99235.13;7390945;19;20591;-82
2024/03/08 09:38:50;;;;;;;10.50;2.67;;;;;;;37.39;20.12;99228.31;7392478;19;20365;-82
2024/03/08 09:41:17;;;;;;;17.67;3.78;;;;;;;37.20;20.18;99221.94;7393502;19;20030;-83
2024/03/08 09:43:45;;;;;;;12.77;3.97;;;;;;;37.10;20.19;99226.69;7393521;19;20014;-84
2024/03/08 09:46:14;;;;;;;10.88;3.15;;;;;;;36.61;19.81;99221.44;7394282;19;20027;-83
2024/03/08 09:48:41;;;;;;;7.57;3.40;;;;;;;36.40;19.97;99219.25;7391868;19;20021;-82
2024/03/08 09:51:07;;;;;;;9.50;4.38;;;;;;;36.36;20.15;99210.44;7393422;19;20041;-80
2024/03/08 09:53:35;;;;;;;7.95;3.15;;;;;;;36.48;19.65;99210.84;7392990;19;20042;-81
2024/03/08 09:56:03;;;;;;;16.08;3.83;;;;;;;36.44;19.71;99211.47;7394220;19;20022;-81
2024/03/08 10:01:01;;;;;;;5.47;3.38;;;;;;;36.22;19.91;99207.78;7394273;19;20014;-81
2024/03/08 10:03:29;;;;;;;6.53;3.28;;;;;;;36.15;19.75;99196.63;7389406;19;20018;-81
2024/03/08 10:06:02;;;;;;;3.10;2.78;;;;;;;36.27;19.81;99191.25;7392373;19;20010;-81
2024/03/08 10:08:31;;;;;;;6.60;1.55;;;;;;;36.43;20.05;99186.03;7393409;19;20010;-81
2024/03/08 10:11:00;;;;;;;3.50;2.30;;;;;;;36.54;19.87;99190.75;7392647;19;20019;-81
2024/03/08 10:13:27;;;;;;;8.68;4.03;;;;;;;36.69;20.10;99189.78;7391321;19;20408;-81
2024/03/08 10:15:54;;;;;;;7.95;3.40;;;;;;;36.93;19.73;99175.31;7394227;19;20010;-81
2024/03/08 10:18:21;;;;;;;23.45;4.35;;;;;;;36.97;19.87;99184.19;7392635;19;20032;-81
2024/03/08 10:21:06;;;;;;;8.40;3.53;;;;;;;37.19;19.98;99171.06;7392051;19;20329;-81
2024/03/08 10:23:33;;;;;;;13.23;4.60;;;;;;;37.30;19.54;99177.16;7389981;19;20562;-81
2024/03/08 10:26:21;;;;;;;15.75;3.85;;;;;;;37.33;19.51;99172.91;7392968;19;20349;-81
2024/03/08 10:28:48;;;;;;;7.95;3.50;;;;;;;37.34;19.14;99183.84;7388713;19;20081;-81
2024/03/08 10:31:20;;;;;;;14.73;4.75;;;;;;;37.06;19.38;99168.47;7390210;19;20019;-82
2024/03/08 10:33:46;;;;;;;12.60;4.15;;;;;;;36.98;19.38;99171.88;7392114;19;20022;-82
2024/03/08 10:36:14;;;;;;;13.88;4.15;;;;;;;36.80;19.60;99158.91;7393526;19;20023;-82
2024/03/08 10:38:53;;;;;;;5.68;2.78;;;;;;;36.72;19.72;99168.13;7389906;19;20014;-82
2024/03/08 10:41:24;;;;;;;11.63;3.95;;;;;;;37.01;19.30;99161.06;7389277;19;20364;-82
2024/03/08 10:44:22;;;;;;;9.55;2.88;;;;;;;37.03;19.70;99153.19;7390072;19;20090;-82
2024/03/08 10:46:58;;;;;;;10.35;3.50;;;;;;;36.55;19.45;99162.47;7384314;19;20530;-81
2024/03/08 10:49:38;;;;;;;6.82;2.13;;;;;;;36.57;19.48;99160.38;7393774;19;20504;-82
2024/03/08 10:52:08;;;;;;;11.27;4.15;;;;;;;36.58;19.51;99147.34;7391988;19;20011;-81
2024/03/08 10:54:38;;;;;;;7.22;2.67;;;;;;;37.12;19.37;99143.25;7393884;19;20380;-82
2024/03/08 10:57:05;;;;;;;11.17;3.93;;;;;;;37.11;19.36;99150.50;7389888;19;20042;-83
2024/03/08 10:59:33;;;;;;;15.52;3.60;;;;;;;37.09;19.22;99135.94;7389314;19;20006;-83
2024/03/08 11:02:00;;;;;;;9.00;3.78;;;;;;;37.37;19.52;99132.38;7389116;19;20054;-81
2024/03/08 11:04:28;;;;;;;8.82;2.70;;;;;;;37.15;19.10;99141.91;7390762;19;20025;-83
2024/03/08 11:07:03;;;;;;;11.98;3.65;;;;;;;37.21;18.85;99121.75;7391537;19;20122;-83
2024/03/08 11:09:38;;;;;;;5.55;3.22;;;;;;;37.27;19.01;99118.28;7389406;19;20014;-83
2024/03/08 11:12:25;;;;;;;6.38;2.35;;;;;;;37.31;19.03;99117.66;7391780;19;20077;-82
2024/03/08 11:14:55;;;;;;;6.25;2.30;;;;;;;37.56;18.87;99108.22;7389926;19;20010;-82
2024/03/08 11:17:28;;;;;;;3.80;3.30;;;;;;;37.87;18.60;99110.56;7390497;19;20023;-82
2024/03/08 11:20:05;;;;;;;7.38;3.78;;;;;;;37.74;19.09;99102.91;7389061;19;20018;-83
2024/03/08 11:22:34;;;;;;;5.28;2.92;;;;;;;37.96;19.08;99097.72;7388855;19;20011;-82
2024/03/08 11:25:09;;;;;;;15.25;3.92;;;;;;;38.01;18.94;99093.47;7395280;19;20010;-82
2024/03/08 11:27:39;;;;;;;13.32;2.80;;;;;;;38.01;18.78;99102.19;7387439;19;20402;-82
2024/03/08 11:30:22;;;;;;;9.25;3.95;;;;;;;37.51;18.79;99084.13;7384044;19;20037;-82
2024/03/08 11:32:51;;;;;;;6.85;3.42;;;;;;;36.94;19.25;99099.19;7384885;19;20033;-82
2024/03/08 11:35:20;;;;;;;9.20;4.15;;;;;;;37.31;19.12;99083.53;7383369;19;20360;-82
2024/03/08 11:37:46;;;;;;;10.85;3.03;;;;;;;37.30;18.68;99070.44;7379814;19;20916;-82
2024/03/08 11:40:19;;;;;;;5.53;3.25;;;;;;;37.31;18.75;99082.81;7381805;19;20022;-81
2024/03/08 11:42:51;;;;;;;6.07;2.90;;;;;;;37.09;19.01;99086.56;7382671;19;20037;-79